Hauptseite
METAR-TAF:

METAR-TAF

Flughäfen :

Fourchambault

Nevers, Frankreich

Breite: 47-00N, Länge: 003-06E, Höhe: 180 m

Beobachtung

Neuester Wetterbericht von vor 41 Minuten, um 10:00 UTC
Wind 3 kt aus Ost/Südost, variierte zwischen Ost/Nordost und Süd/Südost
Temperatur 9°C
Luftfeuchtigkeit 93%
Luftdruck 1006 hPa
Sichtweite: 7000 m
Regen

METAR: LFQG 251000Z AUTO 11003KT 070V150 7000 RA FEW035/// OVC048/// ///CB 09/08 Q1006

Zeit: 12:41 (10:41 UTC)


TAF: fehlend

Wetterbeobachtungen und Prognosen von mehr als 4000 Flughäfen (METAR und TAF Bericht).

Die verfügbaren Stationen werden durch gelbe und rote Markierungen auf der Karte dargestellt.

Führen Sie die Maus auf sie, um den Namen der Station zu sehen.

Darauf klicken, um die Beobachtung von Wetterbeobachtungen und Prognosen zu sehen.

Um die Karte zu ändern : klicken Sie auf den grünen Tasten mit einem schwarzen Kreuz Zum Vergrößern, auf den grünen Button mit einem Gedankenstrich zu verkleinern, oder auf die grünen Pfeile für benachbarte Karten.


METAR-TAF: